createdAt,value
2018-08-25T00:02:09.262Z,5.23
2018-08-25T00:04:37.740Z,5.77
2018-08-25T00:07:06.228Z,5.43
2018-08-25T00:09:34.653Z,5.37
2018-08-25T00:12:03.351Z,4.83
2018-08-25T00:14:32.047Z,5.00
2018-08-25T00:17:00.688Z,5.33
2018-08-25T00:19:29.267Z,4.27
2018-08-25T00:21:57.731Z,4.97
2018-08-25T00:24:26.125Z,4.73
2018-08-25T00:26:54.759Z,5.00
2018-08-25T00:29:23.312Z,5.03
2018-08-25T00:31:52.606Z,4.93
2018-08-25T00:34:22.079Z,5.00
2018-08-25T00:36:50.527Z,4.77
2018-08-25T00:39:19.166Z,4.87
2018-08-25T00:41:47.922Z,4.70
2018-08-25T00:44:16.770Z,5.17
2018-08-25T00:46:45.667Z,4.70
2018-08-25T00:49:14.451Z,5.07
2018-08-25T00:51:43.440Z,5.70
2018-08-25T00:54:12.871Z,5.53
2018-08-25T00:56:41.990Z,5.17
2018-08-25T00:59:10.874Z,5.03
2018-08-25T01:01:39.604Z,4.63
2018-08-25T01:04:08.112Z,5.40
2018-08-25T01:06:36.542Z,5.07
2018-08-25T01:09:07.142Z,5.27
2018-08-25T01:11:35.731Z,5.13
2018-08-25T01:14:04.629Z,4.93
2018-08-25T01:16:33.461Z,4.50
2018-08-25T01:19:02.614Z,5.13
2018-08-25T01:21:31.143Z,4.87
2018-08-25T01:23:59.683Z,5.03
2018-08-25T01:26:28.139Z,4.90
2018-08-25T01:28:56.575Z,5.87
2018-08-25T01:31:27.597Z,5.23
2018-08-25T01:33:56.665Z,5.77
2018-08-25T01:36:25.195Z,4.13
2018-08-25T01:38:53.662Z,4.83
2018-08-25T01:41:22.304Z,5.60
2018-08-25T01:43:50.847Z,5.53
2018-08-25T01:46:19.467Z,5.37
2018-08-25T01:48:48.289Z,4.77
2018-08-25T01:51:17.087Z,5.00
2018-08-25T01:53:45.904Z,5.23
2018-08-25T01:56:14.636Z,5.57
2018-08-25T01:58:43.568Z,4.80
2018-08-25T02:01:12.800Z,5.03
2018-08-25T02:03:42.375Z,5.23
2018-08-25T02:06:11.300Z,5.40
2018-08-25T02:08:40.044Z,5.60
2018-08-25T02:11:08.536Z,5.67
2018-08-25T02:13:36.956Z,5.47
2018-08-25T02:16:05.820Z,5.43
2018-08-25T02:18:34.453Z,5.30
2018-08-25T02:21:03.280Z,5.70
2018-08-25T02:23:31.855Z,5.03
2018-08-25T02:26:00.307Z,5.17
2018-08-25T02:28:28.731Z,5.00
2018-08-25T02:30:57.152Z,4.93
2018-08-25T02:33:25.688Z,5.00
2018-08-25T02:35:54.143Z,5.73
2018-08-25T02:38:22.632Z,5.60
2018-08-25T02:40:51.109Z,5.40
2018-08-25T02:43:19.708Z,5.17
2018-08-25T02:45:48.304Z,5.07
2018-08-25T02:48:17.079Z,5.33
2018-08-25T02:50:45.879Z,5.63
2018-08-25T02:53:14.714Z,5.50
2018-08-25T02:55:43.904Z,5.97
2018-08-25T02:58:12.689Z,5.37
2018-08-25T03:00:41.817Z,5.63
2018-08-25T03:03:10.683Z,4.67
2018-08-25T03:05:39.296Z,4.27
2018-08-25T03:08:07.757Z,7.13
2018-08-25T03:10:36.210Z,5.27
2018-08-25T03:13:04.683Z,5.27
2018-08-25T03:15:33.399Z,5.23
2018-08-25T03:18:02.137Z,6.03
2018-08-25T03:20:30.708Z,5.67
2018-08-25T03:22:59.168Z,5.77
2018-08-25T03:25:27.616Z,5.83
2018-08-25T03:27:56.031Z,5.80
2018-08-25T03:30:24.533Z,5.30
2018-08-25T03:32:52.923Z,5.13
2018-08-25T03:35:21.372Z,5.47
2018-08-25T03:37:49.769Z,5.13
2018-08-25T03:40:18.324Z,5.53
2018-08-25T03:42:46.985Z,5.27
2018-08-25T03:45:16.144Z,5.80
2018-08-25T03:47:45.277Z,5.20
2018-08-25T03:50:14.528Z,5.80
2018-08-25T03:52:43.691Z,5.67
2018-08-25T03:55:12.938Z,6.23
2018-08-25T03:57:41.957Z,5.40
2018-08-25T04:00:11.109Z,5.57
2018-08-25T04:02:39.691Z,5.57
2018-08-25T04:05:08.300Z,5.60
2018-08-25T04:07:36.731Z,5.77
2018-08-25T04:10:05.159Z,5.30
2018-08-25T04:12:33.849Z,5.47
2018-08-25T04:15:02.572Z,5.03
2018-08-25T04:17:31.111Z,5.70
2018-08-25T04:19:59.643Z,5.47
2018-08-25T04:22:28.087Z,5.60
2018-08-25T04:24:56.533Z,5.23
2018-08-25T04:27:24.976Z,4.73
2018-08-25T04:29:53.424Z,5.00
2018-08-25T04:32:21.839Z,4.73
2018-08-25T04:34:50.294Z,4.60
2018-08-25T04:37:18.765Z,6.30
2018-08-25T04:39:47.853Z,5.17
2018-08-25T04:42:16.675Z,5.40
2018-08-25T04:44:45.524Z,5.00
2018-08-25T04:47:14.647Z,5.03
2018-08-25T04:49:43.538Z,5.97
2018-08-25T04:52:12.418Z,5.07
2018-08-25T04:54:41.581Z,5.70
2018-08-25T04:57:10.510Z,4.73
2018-08-25T04:59:39.020Z,4.90
2018-08-25T05:02:07.707Z,5.50
2018-08-25T05:04:36.136Z,5.40
2018-08-25T05:07:04.627Z,5.67
2018-08-25T05:09:33.519Z,5.53
2018-08-25T05:12:02.065Z,4.90
2018-08-25T05:14:30.448Z,4.67
2018-08-25T05:16:58.931Z,5.00
2018-08-25T05:19:27.316Z,4.27
2018-08-25T05:21:55.799Z,5.43
2018-08-25T05:24:24.132Z,4.93
2018-08-25T05:26:52.487Z,5.33
2018-08-25T05:29:21.187Z,4.60
2018-08-25T05:31:49.742Z,4.63
2018-08-25T05:34:18.495Z,5.07
2018-08-25T05:36:47.170Z,5.47
2018-08-25T05:39:16.009Z,4.67
2018-08-25T05:41:44.917Z,4.13
2018-08-25T05:44:14.032Z,4.87
2018-08-25T05:46:43.266Z,5.13
2018-08-25T05:49:12.124Z,4.63
2018-08-25T05:51:41.005Z,4.57
2018-08-25T05:54:09.793Z,4.07
2018-08-25T05:56:38.289Z,4.17
2018-08-25T05:59:06.777Z,3.67
2018-08-25T06:01:35.356Z,4.70
2018-08-25T06:04:04.280Z,4.50
2018-08-25T06:06:33.054Z,4.70
2018-08-25T06:09:01.893Z,4.67
2018-08-25T06:11:30.604Z,4.30
2018-08-25T06:13:59.161Z,4.93
2018-08-25T06:16:27.573Z,4.60
2018-08-25T06:18:55.955Z,4.63
2018-08-25T06:21:24.424Z,3.93
2018-08-25T06:23:52.819Z,4.37
2018-08-25T06:26:21.317Z,4.73
2018-08-25T06:28:49.769Z,5.10
2018-08-25T06:31:18.383Z,4.80
2018-08-25T06:33:47.015Z,4.73
2018-08-25T06:36:15.684Z,4.50
2018-08-25T06:38:44.711Z,5.33
2018-08-25T06:41:13.613Z,4.47
2018-08-25T06:43:42.379Z,4.63
2018-08-25T06:46:11.031Z,4.83
2018-08-25T06:48:40.564Z,4.57
2018-08-25T06:51:09.272Z,4.83
2018-08-25T06:53:37.824Z,4.33
2018-08-25T06:56:06.275Z,4.73
2018-08-25T06:58:34.714Z,4.90
2018-08-25T07:01:03.194Z,3.97
2018-08-25T07:03:31.629Z,4.00
2018-08-25T07:06:00.145Z,4.30
2018-08-25T07:08:28.672Z,4.17
2018-08-25T07:10:57.105Z,3.50
2018-08-25T07:13:25.544Z,3.57
2018-08-25T07:15:53.984Z,3.63
2018-08-25T07:18:22.388Z,4.17
2018-08-25T07:20:50.804Z,3.27
2018-08-25T07:23:19.262Z,3.93
2018-08-25T07:25:47.902Z,4.33
2018-08-25T07:28:16.287Z,3.90
2018-08-25T07:30:44.726Z,4.20
2018-08-25T07:33:13.187Z,4.13
2018-08-25T07:35:41.988Z,3.47
2018-08-25T07:38:10.555Z,3.60
2018-08-25T07:40:38.912Z,3.43
2018-08-25T07:43:07.352Z,3.90
2018-08-25T07:45:35.753Z,3.47
2018-08-25T07:48:04.344Z,3.40
2018-08-25T07:50:32.726Z,3.60
2018-08-25T07:53:01.145Z,3.53
2018-08-25T07:55:29.539Z,3.40
2018-08-25T07:57:57.964Z,2.80
2018-08-25T08:00:26.390Z,3.37
2018-08-25T08:02:54.857Z,3.43
2018-08-25T08:05:23.404Z,3.10
2018-08-25T08:07:51.776Z,3.47
2018-08-25T08:10:20.174Z,3.00
2018-08-25T08:12:48.667Z,3.53
2018-08-25T08:15:17.120Z,2.83
2018-08-25T08:17:45.535Z,2.97
2018-08-25T08:20:14.046Z,2.90
2018-08-25T08:22:42.588Z,3.50
2018-08-25T08:25:12.049Z,2.93
2018-08-25T08:27:40.555Z,3.50
2018-08-25T08:30:08.996Z,3.57
2018-08-25T08:32:37.468Z,3.00
2018-08-25T08:35:05.967Z,3.30
2018-08-25T08:37:34.408Z,3.40
2018-08-25T08:40:02.820Z,3.40
2018-08-25T08:42:31.234Z,3.80
2018-08-25T08:44:59.635Z,2.90
2018-08-25T08:47:28.143Z,3.50
2018-08-25T08:49:56.645Z,3.90
2018-08-25T08:52:25.094Z,3.67
2018-08-25T08:54:53.464Z,4.00
2018-08-25T08:57:21.948Z,3.87
2018-08-25T08:59:50.510Z,3.57
2018-08-25T09:02:18.893Z,3.93
2018-08-25T09:04:47.344Z,3.80
2018-08-25T09:07:15.752Z,3.43
2018-08-25T09:09:44.249Z,3.93
2018-08-25T09:12:12.684Z,3.50
2018-08-25T09:14:41.696Z,3.37
2018-08-25T09:17:10.505Z,3.90
2018-08-25T09:19:38.960Z,3.60
2018-08-25T09:22:07.433Z,3.40
2018-08-25T09:24:35.913Z,3.40
2018-08-25T09:27:04.368Z,3.97
2018-08-25T09:29:32.828Z,3.37
2018-08-25T09:32:01.605Z,3.30
2018-08-25T09:34:30.033Z,3.27
2018-08-25T09:36:58.805Z,3.43
2018-08-25T09:39:26.898Z,3.23
2018-08-25T09:41:55.391Z,3.03
2018-08-25T09:44:23.839Z,2.80
2018-08-25T09:46:52.297Z,3.20
2018-08-25T09:49:20.684Z,3.60
2018-08-25T09:51:49.861Z,4.00
2018-08-25T09:54:18.285Z,3.17
2018-08-25T09:56:46.707Z,3.20
2018-08-25T09:59:15.228Z,3.20
2018-08-25T10:01:51.217Z,3.43
2018-08-25T10:04:19.713Z,3.20
2018-08-25T10:06:48.088Z,3.17
2018-08-25T10:09:16.473Z,3.43
2018-08-25T10:11:44.925Z,3.70
2018-08-25T10:14:13.324Z,3.20
2018-08-25T10:16:41.795Z,3.40
2018-08-25T10:19:10.331Z,3.00
2018-08-25T10:21:39.113Z,3.50
2018-08-25T10:24:07.838Z,3.10
2018-08-25T10:26:36.248Z,3.10
2018-08-25T10:29:05.036Z,2.73
2018-08-25T10:31:33.381Z,3.07
2018-08-25T10:34:01.796Z,3.30
2018-08-25T10:36:30.277Z,2.83
2018-08-25T10:38:58.930Z,2.47
2018-08-25T10:41:27.428Z,2.87
2018-08-25T10:43:55.768Z,2.70
2018-08-25T10:46:24.188Z,3.13
2018-08-25T10:48:52.628Z,3.40
2018-08-25T10:51:21.070Z,2.50
2018-08-25T10:53:49.524Z,2.53
2018-08-25T10:56:17.972Z,2.77
2018-08-25T10:58:46.395Z,2.63
2018-08-25T11:01:14.882Z,3.00
2018-08-25T11:03:43.220Z,2.70
2018-08-25T11:06:19.847Z,2.80
2018-08-25T11:08:48.378Z,2.73
2018-08-25T11:11:16.872Z,2.13
2018-08-25T11:13:45.349Z,2.47
2018-08-25T11:16:13.796Z,2.10
2018-08-25T11:18:42.556Z,2.10
2018-08-25T11:21:11.992Z,2.43
2018-08-25T11:23:40.894Z,2.03
2018-08-25T11:26:26.748Z,2.13
2018-08-25T11:28:55.332Z,2.17
2018-08-25T11:31:23.740Z,2.00
2018-08-25T11:33:54.179Z,2.80
2018-08-25T11:36:23.266Z,1.83
2018-08-25T11:38:54.107Z,2.40
2018-08-25T11:41:22.567Z,2.10
2018-08-25T11:43:51.126Z,3.00
2018-08-25T11:46:19.652Z,2.80
2018-08-25T11:48:48.175Z,2.70
2018-08-25T11:51:16.579Z,2.87
2018-08-25T11:53:45.020Z,2.20
2018-08-25T11:56:13.535Z,2.53
2018-08-25T11:58:41.970Z,2.20
2018-08-25T12:01:20.626Z,2.50
2018-08-25T12:03:49.208Z,2.50
2018-08-25T12:06:18.673Z,2.70
2018-08-25T12:08:47.128Z,2.20
2018-08-25T12:11:16.557Z,2.20
2018-08-25T12:13:44.984Z,2.27
2018-08-25T12:16:13.467Z,2.27
2018-08-25T12:18:42.079Z,2.60
2018-08-25T12:21:11.630Z,2.67
2018-08-25T12:23:44.240Z,2.23
2018-08-25T12:26:12.705Z,1.93
2018-08-25T12:28:41.456Z,1.63
2018-08-25T12:31:09.861Z,1.70
2018-08-25T12:33:38.440Z,1.83
2018-08-25T12:36:07.109Z,1.80
2018-08-25T12:38:35.581Z,1.97
2018-08-25T12:41:03.974Z,1.50
2018-08-25T12:43:32.407Z,2.03
2018-08-25T12:46:00.792Z,1.87
2018-08-25T12:48:29.243Z,2.20
2018-08-25T12:50:57.742Z,2.33
2018-08-25T12:53:26.220Z,1.60
2018-08-25T12:55:54.640Z,2.13
2018-08-25T12:58:23.052Z,1.97
2018-08-25T13:00:51.522Z,2.57
2018-08-25T13:03:19.942Z,1.73
2018-08-25T13:05:48.601Z,2.30
2018-08-25T13:08:18.664Z,1.90
2018-08-25T13:10:47.083Z,2.33
2018-08-25T13:13:15.495Z,2.40
2018-08-25T13:15:43.920Z,2.67
2018-08-25T13:18:12.390Z,2.20
2018-08-25T13:20:41.541Z,2.33
2018-08-25T13:23:10.054Z,1.90
2018-08-25T13:25:38.400Z,2.60
2018-08-25T13:28:06.865Z,2.00
2018-08-25T13:30:35.313Z,2.27
2018-08-25T13:33:03.808Z,1.90
2018-08-25T13:35:32.312Z,2.13
2018-08-25T13:38:00.834Z,2.57
2018-08-25T13:40:29.228Z,2.20
2018-08-25T13:42:57.700Z,1.97
2018-08-25T13:45:26.245Z,2.03
2018-08-25T13:47:54.616Z,1.70
2018-08-25T13:50:23.045Z,2.03
2018-08-25T13:52:51.506Z,2.60
2018-08-25T13:55:19.993Z,2.20
2018-08-25T13:57:48.457Z,2.13
2018-08-25T14:00:17.042Z,1.57
2018-08-25T14:02:45.475Z,1.63
2018-08-25T14:05:14.011Z,2.20
2018-08-25T14:07:42.787Z,1.60
2018-08-25T14:10:11.379Z,1.80
2018-08-25T14:12:39.815Z,1.93
2018-08-25T14:15:08.413Z,1.90
2018-08-25T14:17:36.967Z,1.73
2018-08-25T14:20:05.581Z,1.57
2018-08-25T14:22:34.028Z,2.03
2018-08-25T14:25:02.572Z,1.40
2018-08-25T14:27:31.077Z,1.57
2018-08-25T14:30:02.301Z,1.57
2018-08-25T14:32:34.023Z,1.50
2018-08-25T14:35:03.760Z,1.90
2018-08-25T14:37:33.489Z,1.73
2018-08-25T14:40:03.724Z,1.77
2018-08-25T14:42:34.040Z,1.50
2018-08-25T14:45:05.503Z,1.60
2018-08-25T14:47:35.948Z,2.03
2018-08-25T14:50:05.867Z,1.80
2018-08-25T14:52:35.819Z,1.60
2018-08-25T14:55:06.233Z,1.80
2018-08-25T14:57:35.653Z,1.67
2018-08-25T15:00:05.354Z,1.57
2018-08-25T15:02:34.521Z,1.60
2018-08-25T15:05:04.150Z,1.63
2018-08-25T15:07:32.606Z,1.70
2018-08-25T15:10:01.064Z,1.57
2018-08-25T15:12:29.669Z,2.00
2018-08-25T15:14:58.115Z,1.77
2018-08-25T15:17:26.536Z,1.87
2018-08-25T15:19:55.000Z,1.70
2018-08-25T15:22:23.448Z,2.07
2018-08-25T15:24:51.933Z,1.57
2018-08-25T15:27:20.519Z,1.60
2018-08-25T15:29:48.880Z,2.20
2018-08-25T15:32:19.018Z,2.17
2018-08-25T15:34:47.457Z,1.70
2018-08-25T15:37:15.936Z,1.73
2018-08-25T15:39:44.479Z,2.60
2018-08-25T15:42:13.026Z,1.93
2018-08-25T15:44:41.590Z,1.77
2018-08-25T15:47:10.143Z,2.27
2018-08-25T15:49:38.599Z,2.33
2018-08-25T15:52:07.059Z,2.20
2018-08-25T15:54:35.449Z,2.17
2018-08-25T15:57:03.920Z,2.10
2018-08-25T15:59:32.467Z,2.07
2018-08-25T16:02:00.932Z,2.10
2018-08-25T16:04:29.310Z,2.00
2018-08-25T16:06:57.769Z,2.73
2018-08-25T16:09:26.180Z,2.40
2018-08-25T16:11:54.727Z,2.27
2018-08-25T16:14:23.212Z,2.40
2018-08-25T16:16:51.662Z,2.10
2018-08-25T16:19:20.295Z,2.63
2018-08-25T16:21:48.583Z,2.07
2018-08-25T16:24:17.063Z,2.10
2018-08-25T16:26:45.426Z,2.37
2018-08-25T16:29:14.048Z,2.30
2018-08-25T16:31:42.804Z,2.07
2018-08-25T16:34:12.068Z,2.23
2018-08-25T16:36:40.757Z,2.17
2018-08-25T16:39:09.224Z,2.47
2018-08-25T16:41:37.922Z,2.33
2018-08-25T16:44:06.395Z,1.90
2018-08-25T16:46:34.906Z,1.73
2018-08-25T16:49:03.324Z,2.20
2018-08-25T16:51:31.832Z,2.07
2018-08-25T16:54:00.280Z,3.07
2018-08-25T16:56:28.733Z,2.23
2018-08-25T16:58:57.192Z,2.37
2018-08-25T17:01:25.676Z,2.50
2018-08-25T17:03:54.112Z,1.83
2018-08-25T17:06:22.568Z,1.90
2018-08-25T17:08:51.060Z,1.87
2018-08-25T17:11:19.491Z,2.13
2018-08-25T17:13:47.942Z,2.10
2018-08-25T17:16:16.419Z,2.10
2018-08-25T17:18:45.052Z,2.23
2018-08-25T17:21:13.723Z,2.67
2018-08-25T17:23:42.611Z,2.17
2018-08-25T17:26:11.228Z,1.90
2018-08-25T17:28:39.941Z,2.33
2018-08-25T17:31:08.694Z,2.17
2018-08-25T17:33:37.176Z,2.03
2018-08-25T17:36:05.900Z,2.30
2018-08-25T17:38:38.011Z,2.33
2018-08-25T17:41:06.492Z,1.93
2018-08-25T17:43:35.285Z,1.93
2018-08-25T17:46:04.340Z,2.30
2018-08-25T17:48:33.108Z,2.70
2018-08-25T17:51:02.049Z,2.70
2018-08-25T17:53:33.204Z,3.50
2018-08-25T17:56:04.161Z,2.63
2018-08-25T17:58:32.833Z,2.27
2018-08-25T18:01:01.507Z,2.17
2018-08-25T18:03:30.241Z,2.27
2018-08-25T18:05:58.980Z,2.10
2018-08-25T18:08:27.740Z,2.57
2018-08-25T18:10:56.221Z,2.93
2018-08-25T18:13:24.752Z,2.80
2018-08-25T18:15:53.620Z,2.23
2018-08-25T18:18:22.268Z,2.47
2018-08-25T18:20:50.853Z,3.10
2018-08-25T18:23:19.408Z,2.70
2018-08-25T18:25:47.814Z,2.40
2018-08-25T18:28:16.324Z,3.10
2018-08-25T18:30:44.959Z,2.63
2018-08-25T18:33:13.440Z,2.57
2018-08-25T18:35:42.171Z,2.30
2018-08-25T18:38:10.937Z,2.50
2018-08-25T18:40:39.384Z,2.47
2018-08-25T18:43:07.928Z,2.60
2018-08-25T18:45:36.398Z,2.70
2018-08-25T18:48:17.292Z,3.23
2018-08-25T18:50:45.909Z,2.70
2018-08-25T18:53:14.485Z,2.93
2018-08-25T18:55:43.052Z,2.93
2018-08-25T18:58:11.672Z,2.60
2018-08-25T19:00:40.251Z,2.90
2018-08-25T19:03:08.777Z,3.17
2018-08-25T19:05:37.276Z,2.73
2018-08-25T19:08:05.792Z,3.13
2018-08-25T19:10:34.256Z,2.90
2018-08-25T19:13:02.793Z,3.13
2018-08-25T19:15:31.295Z,2.97
2018-08-25T19:17:59.721Z,2.60
2018-08-25T19:20:28.166Z,3.03
2018-08-25T19:26:07.699Z,3.37
2018-08-25T19:28:36.531Z,3.10
2018-08-25T19:31:05.020Z,2.90
2018-08-25T19:33:33.522Z,3.07
2018-08-25T19:36:02.073Z,2.90
2018-08-25T19:38:30.772Z,3.03
2018-08-25T19:40:59.260Z,2.77
2018-08-25T19:43:27.773Z,3.03
2018-08-25T19:45:56.262Z,2.97
2018-08-25T19:48:24.852Z,3.03
2018-08-25T19:50:53.297Z,3.10
2018-08-25T19:53:21.748Z,2.63
2018-08-25T19:55:50.299Z,2.87
2018-08-25T19:58:18.891Z,2.63
2018-08-25T20:00:47.388Z,3.30
2018-08-25T20:03:16.022Z,2.53
2018-08-25T20:05:44.837Z,2.73
2018-08-25T20:08:13.640Z,3.17
2018-08-25T20:10:42.287Z,2.57
2018-08-25T20:13:11.115Z,2.27
2018-08-25T20:15:39.622Z,2.77
2018-08-25T20:18:08.029Z,3.13
2018-08-25T20:20:36.679Z,2.97
2018-08-25T20:23:05.348Z,2.93
2018-08-25T20:25:33.830Z,3.03
2018-08-25T20:28:02.352Z,2.80
2018-08-25T20:30:32.257Z,2.93
2018-08-25T20:33:00.763Z,2.40
2018-08-25T20:35:29.282Z,3.70
2018-08-25T20:37:57.833Z,2.83
2018-08-25T20:40:26.665Z,1.97
2018-08-25T20:42:55.102Z,1.33
2018-08-25T20:45:23.692Z,1.70
2018-08-25T20:47:52.073Z,1.53
2018-08-25T20:50:20.536Z,1.10
2018-08-25T20:52:49.071Z,1.33
2018-08-25T20:55:19.921Z,2.47
2018-08-25T20:57:48.409Z,2.73
2018-08-25T21:00:17.137Z,2.80
2018-08-25T21:02:45.855Z,2.37
2018-08-25T21:05:14.460Z,2.10
2018-08-25T21:10:41.927Z,2.30
2018-08-25T21:13:10.392Z,2.30
2018-08-25T21:15:38.900Z,2.53
2018-08-25T21:18:07.472Z,2.80
2018-08-25T21:20:36.168Z,3.00
2018-08-25T21:23:04.613Z,2.73
2018-08-25T21:25:33.041Z,2.70
2018-08-25T21:28:01.472Z,2.90
2018-08-25T21:30:30.005Z,2.47
2018-08-25T21:32:58.432Z,3.37
2018-08-25T21:35:26.959Z,3.40
2018-08-25T21:37:55.420Z,2.73
2018-08-25T21:40:23.869Z,3.23
2018-08-25T21:42:52.420Z,3.80
2018-08-25T21:45:20.999Z,3.33
2018-08-25T21:47:49.455Z,3.07
2018-08-25T21:50:17.892Z,3.20
2018-08-25T21:52:46.387Z,3.03
2018-08-25T21:55:14.969Z,2.87
2018-08-25T21:57:43.492Z,3.17
2018-08-25T22:00:12.049Z,2.90
2018-08-25T22:02:40.503Z,2.97
2018-08-25T22:05:09.199Z,3.00
2018-08-25T22:07:37.670Z,3.10
2018-08-25T22:10:06.177Z,3.00
2018-08-25T22:12:34.589Z,3.13
2018-08-25T22:15:02.961Z,2.93
2018-08-25T22:17:31.481Z,3.13
2018-08-25T22:20:00.101Z,2.90
2018-08-25T22:22:28.609Z,2.77
2018-08-25T22:24:57.063Z,2.83
2018-08-25T22:27:25.546Z,2.73
2018-08-25T22:29:53.977Z,2.83
2018-08-25T22:32:22.381Z,3.37
2018-08-25T22:34:50.828Z,3.00
2018-08-25T22:37:19.444Z,3.00
2018-08-25T22:39:47.896Z,2.83
2018-08-25T22:42:16.372Z,2.67
2018-08-25T22:44:44.880Z,2.47
2018-08-25T22:47:13.355Z,2.63
2018-08-25T22:49:41.813Z,3.17
2018-08-25T22:52:10.345Z,2.33
2018-08-25T22:54:38.760Z,2.80
2018-08-25T22:57:07.164Z,2.20
2018-08-25T22:59:35.556Z,2.10
2018-08-25T23:02:04.020Z,2.10
2018-08-25T23:04:32.480Z,2.27
2018-08-25T23:07:00.938Z,2.10
2018-08-25T23:09:29.416Z,2.07
2018-08-25T23:11:57.933Z,1.47
2018-08-25T23:14:26.306Z,1.90
2018-08-25T23:16:54.747Z,1.40
2018-08-25T23:19:23.228Z,1.90
2018-08-25T23:21:51.620Z,1.80
2018-08-25T23:24:20.063Z,1.53
2018-08-25T23:26:48.491Z,1.80
2018-08-25T23:29:16.961Z,1.43
2018-08-25T23:31:45.484Z,1.90
2018-08-25T23:34:13.972Z,2.00
2018-08-25T23:36:42.605Z,1.50
2018-08-25T23:39:11.375Z,1.80
2018-08-25T23:41:39.847Z,1.73
2018-08-25T23:44:08.311Z,1.90
2018-08-25T23:46:36.752Z,2.30
2018-08-25T23:49:05.231Z,2.10
2018-08-25T23:51:33.708Z,2.13
2018-08-25T23:54:02.143Z,2.27
2018-08-25T23:56:30.564Z,2.87
2018-08-25T23:58:59.145Z,2.50
